sensor_id;sensor_type;location;lat;lon;timestamp;temperature;humidity
16744;DHT22;71724;-33.900;151.182;2023-07-31T00:01:33;19.00;45.80
16744;DHT22;71724;-33.900;151.182;2023-07-31T00:04:00;18.90;45.80
16744;DHT22;71724;-33.900;151.182;2023-07-31T00:06:27;19.00;46.00
16744;DHT22;71724;-33.900;151.182;2023-07-31T00:08:55;19.20;46.20
16744;DHT22;71724;-33.900;151.182;2023-07-31T00:11:22;19.40;45.10
16744;DHT22;71724;-33.900;151.182;2023-07-31T00:13:49;19.50;45.20
16744;DHT22;71724;-33.900;151.182;2023-07-31T00:16:17;19.70;44.90
16744;DHT22;71724;-33.900;151.182;2023-07-31T00:18:44;19.70;44.70
16744;DHT22;71724;-33.900;151.182;2023-07-31T00:21:11;20.00;44.50
16744;DHT22;71724;-33.900;151.182;2023-07-31T00:23:39;20.10;44.60
16744;DHT22;71724;-33.900;151.182;2023-07-31T00:26:06;20.30;44.30
16744;DHT22;71724;-33.900;151.182;2023-07-31T00:28:34;20.40;42.70
16744;DHT22;71724;-33.900;151.182;2023-07-31T00:31:05;20.40;42.50
16744;DHT22;71724;-33.900;151.182;2023-07-31T00:33:34;20.30;42.70
16744;DHT22;71724;-33.900;151.182;2023-07-31T00:36:04;20.20;43.40
16744;DHT22;71724;-33.900;151.182;2023-07-31T00:38:36;20.30;43.60
16744;DHT22;71724;-33.900;151.182;2023-07-31T00:41:03;20.40;42.90
16744;DHT22;71724;-33.900;151.182;2023-07-31T00:43:31;20.60;42.60
16744;DHT22;71724;-33.900;151.182;2023-07-31T00:45:58;20.50;42.10
16744;DHT22;71724;-33.900;151.182;2023-07-31T00:48:26;20.50;42.10
16744;DHT22;71724;-33.900;151.182;2023-07-31T00:50:54;20.60;42.60
16744;DHT22;71724;-33.900;151.182;2023-07-31T00:53:21;20.70;42.20
16744;DHT22;71724;-33.900;151.182;2023-07-31T00:55:53;20.80;41.10
16744;DHT22;71724;-33.900;151.182;2023-07-31T00:58:20;20.80;41.60
16744;DHT22;71724;-33.900;151.182;2023-07-31T01:00:49;20.80;42.00
16744;DHT22;71724;-33.900;151.182;2023-07-31T01:03:17;20.90;41.30
16744;DHT22;71724;-33.900;151.182;2023-07-31T01:13:54;21.20;41.20
16744;DHT22;71724;-33.900;151.182;2023-07-31T01:16:21;21.30;41.30
16744;DHT22;71724;-33.900;151.182;2023-07-31T01:18:50;21.60;39.90
16744;DHT22;71724;-33.900;151.182;2023-07-31T01:27:34;21.70;38.90
16744;DHT22;71724;-33.900;151.182;2023-07-31T01:30:16;21.60;39.20
16744;DHT22;71724;-33.900;151.182;2023-07-31T01:32:48;21.50;39.60
16744;DHT22;71724;-33.900;151.182;2023-07-31T01:35:16;21.40;39.80
16744;DHT22;71724;-33.900;151.182;2023-07-31T01:37:45;21.70;39.70
16744;DHT22;71724;-33.900;151.182;2023-07-31T01:40:12;21.70;40.80
16744;DHT22;71724;-33.900;151.182;2023-07-31T01:42:39;21.70;39.80
16744;DHT22;71724;-33.900;151.182;2023-07-31T01:45:07;21.80;40.30
16744;DHT22;71724;-33.900;151.182;2023-07-31T01:47:35;21.90;39.40
16744;DHT22;71724;-33.900;151.182;2023-07-31T01:50:02;22.00;39.10
16744;DHT22;71724;-33.900;151.182;2023-07-31T01:52:30;21.90;38.70
16744;DHT22;71724;-33.900;151.182;2023-07-31T01:54:57;21.70;38.30
16744;DHT22;71724;-33.900;151.182;2023-07-31T01:57:24;21.80;39.00
16744;DHT22;71724;-33.900;151.182;2023-07-31T01:59:52;21.70;39.10
16744;DHT22;71724;-33.900;151.182;2023-07-31T02:02:21;21.80;39.10
16744;DHT22;71724;-33.900;151.182;2023-07-31T02:04:49;21.80;38.70
16744;DHT22;71724;-33.900;151.182;2023-07-31T02:07:17;21.70;39.30
16744;DHT22;71724;-33.900;151.182;2023-07-31T02:09:44;21.70;40.20
16744;DHT22;71724;-33.900;151.182;2023-07-31T02:12:13;21.70;39.20
16744;DHT22;71724;-33.900;151.182;2023-07-31T02:14:41;21.60;39.50
16744;DHT22;71724;-33.900;151.182;2023-07-31T02:17:09;21.60;39.60
16744;DHT22;71724;-33.900;151.182;2023-07-31T02:19:37;21.60;38.90
16744;DHT22;71724;-33.900;151.182;2023-07-31T02:22:04;21.60;39.70
16744;DHT22;71724;-33.900;151.182;2023-07-31T02:24:32;21.60;39.50
16744;DHT22;71724;-33.900;151.182;2023-07-31T02:26:59;21.50;39.70
16744;DHT22;71724;-33.900;151.182;2023-07-31T02:29:26;21.50;38.70
16744;DHT22;71724;-33.900;151.182;2023-07-31T02:31:54;21.50;39.70
16744;DHT22;71724;-33.900;151.182;2023-07-31T02:34:21;21.70;38.80
16744;DHT22;71724;-33.900;151.182;2023-07-31T02:36:49;21.70;38.20
16744;DHT22;71724;-33.900;151.182;2023-07-31T02:39:17;21.60;38.00
16744;DHT22;71724;-33.900;151.182;2023-07-31T02:41:45;21.50;38.90
16744;DHT22;71724;-33.900;151.182;2023-07-31T02:44:15;21.50;38.50
16744;DHT22;71724;-33.900;151.182;2023-07-31T02:46:44;21.70;38.70
16744;DHT22;71724;-33.900;151.182;2023-07-31T02:49:11;21.60;38.30
16744;DHT22;71724;-33.900;151.182;2023-07-31T02:51:38;21.60;38.80
16744;DHT22;71724;-33.900;151.182;2023-07-31T02:54:06;21.70;38.70
16744;DHT22;71724;-33.900;151.182;2023-07-31T02:56:33;21.80;38.70
16744;DHT22;71724;-33.900;151.182;2023-07-31T02:59:00;21.80;38.80
16744;DHT22;71724;-33.900;151.182;2023-07-31T03:01:28;21.80;38.90
16744;DHT22;71724;-33.900;151.182;2023-07-31T03:03:55;21.90;37.80
16744;DHT22;71724;-33.900;151.182;2023-07-31T03:06:23;21.80;36.90
16744;DHT22;71724;-33.900;151.182;2023-07-31T03:08:50;21.80;37.80
16744;DHT22;71724;-33.900;151.182;2023-07-31T03:11:18;21.80;38.20
16744;DHT22;71724;-33.900;151.182;2023-07-31T03:13:45;21.90;38.50
16744;DHT22;71724;-33.900;151.182;2023-07-31T03:16:15;22.00;37.70
16744;DHT22;71724;-33.900;151.182;2023-07-31T03:18:43;22.10;37.90
16744;DHT22;71724;-33.900;151.182;2023-07-31T03:21:10;22.10;37.00
16744;DHT22;71724;-33.900;151.182;2023-07-31T03:23:37;22.10;37.50
16744;DHT22;71724;-33.900;151.182;2023-07-31T03:26:07;22.10;37.00
16744;DHT22;71724;-33.900;151.182;2023-07-31T03:28:34;22.00;37.20
16744;DHT22;71724;-33.900;151.182;2023-07-31T03:31:02;22.20;37.50
16744;DHT22;71724;-33.900;151.182;2023-07-31T03:33:29;22.20;37.70
16744;DHT22;71724;-33.900;151.182;2023-07-31T03:35:57;22.30;37.90
16744;DHT22;71724;-33.900;151.182;2023-07-31T03:38:24;22.30;37.70
16744;DHT22;71724;-33.900;151.182;2023-07-31T03:40:53;22.30;37.10
16744;DHT22;71724;-33.900;151.182;2023-07-31T03:43:21;22.40;36.60
16744;DHT22;71724;-33.900;151.182;2023-07-31T03:45:49;22.40;37.10
16744;DHT22;71724;-33.900;151.182;2023-07-31T03:48:16;22.40;37.00
16744;DHT22;71724;-33.900;151.182;2023-07-31T03:50:44;22.40;36.50
16744;DHT22;71724;-33.900;151.182;2023-07-31T03:53:11;22.40;36.80
16744;DHT22;71724;-33.900;151.182;2023-07-31T03:55:39;22.50;36.40
16744;DHT22;71724;-33.900;151.182;2023-07-31T03:58:06;22.40;36.10
16744;DHT22;71724;-33.900;151.182;2023-07-31T04:00:34;22.40;36.40
16744;DHT22;71724;-33.900;151.182;2023-07-31T04:03:01;22.30;35.90
16744;DHT22;71724;-33.900;151.182;2023-07-31T04:05:31;22.30;36.20
16744;DHT22;71724;-33.900;151.182;2023-07-31T04:07:59;22.30;36.40
16744;DHT22;71724;-33.900;151.182;2023-07-31T04:10:26;22.30;36.50
16744;DHT22;71724;-33.900;151.182;2023-07-31T04:12:54;22.50;36.80
16744;DHT22;71724;-33.900;151.182;2023-07-31T04:15:22;22.50;37.00
16744;DHT22;71724;-33.900;151.182;2023-07-31T04:17:50;22.60;36.90
16744;DHT22;71724;-33.900;151.182;2023-07-31T04:20:18;22.80;36.00
16744;DHT22;71724;-33.900;151.182;2023-07-31T04:22:46;22.80;36.50
16744;DHT22;71724;-33.900;151.182;2023-07-31T04:25:19;22.80;36.60
16744;DHT22;71724;-33.900;151.182;2023-07-31T04:27:46;22.80;36.20
16744;DHT22;71724;-33.900;151.182;2023-07-31T04:30:14;22.80;36.20
16744;DHT22;71724;-33.900;151.182;2023-07-31T04:32:41;22.80;36.10
16744;DHT22;71724;-33.900;151.182;2023-07-31T04:35:12;22.80;36.10
16744;DHT22;71724;-33.900;151.182;2023-07-31T04:37:39;22.80;36.70
16744;DHT22;71724;-33.900;151.182;2023-07-31T04:40:08;22.90;36.80
16744;DHT22;71724;-33.900;151.182;2023-07-31T04:42:35;22.90;36.20
16744;DHT22;71724;-33.900;151.182;2023-07-31T04:45:03;23.00;36.10
16744;DHT22;71724;-33.900;151.182;2023-07-31T04:47:30;23.00;36.50
16744;DHT22;71724;-33.900;151.182;2023-07-31T04:49:58;23.10;35.80
16744;DHT22;71724;-33.900;151.182;2023-07-31T04:52:25;23.00;36.20
16744;DHT22;71724;-33.900;151.182;2023-07-31T04:54:52;23.10;35.80
16744;DHT22;71724;-33.900;151.182;2023-07-31T04:57:20;23.10;35.90
16744;DHT22;71724;-33.900;151.182;2023-07-31T04:59:47;23.00;36.10
16744;DHT22;71724;-33.900;151.182;2023-07-31T05:02:15;23.00;35.90
16744;DHT22;71724;-33.900;151.182;2023-07-31T05:04:42;23.00;36.90
16744;DHT22;71724;-33.900;151.182;2023-07-31T05:07:09;23.00;36.10
16744;DHT22;71724;-33.900;151.182;2023-07-31T05:09:37;23.00;35.70
16744;DHT22;71724;-33.900;151.182;2023-07-31T05:12:08;22.90;36.00
16744;DHT22;71724;-33.900;151.182;2023-07-31T05:14:36;23.00;35.70
16744;DHT22;71724;-33.900;151.182;2023-07-31T05:17:03;22.90;36.60
16744;DHT22;71724;-33.900;151.182;2023-07-31T05:19:31;22.90;36.10
16744;DHT22;71724;-33.900;151.182;2023-07-31T05:22:01;22.90;36.30
16744;DHT22;71724;-33.900;151.182;2023-07-31T05:24:28;22.90;35.60
16744;DHT22;71724;-33.900;151.182;2023-07-31T05:26:56;22.90;35.90
16744;DHT22;71724;-33.900;151.182;2023-07-31T05:29:23;22.90;35.90
16744;DHT22;71724;-33.900;151.182;2023-07-31T05:31:52;22.90;36.40
16744;DHT22;71724;-33.900;151.182;2023-07-31T05:34:19;22.80;35.80
16744;DHT22;71724;-33.900;151.182;2023-07-31T05:36:47;22.80;36.10
16744;DHT22;71724;-33.900;151.182;2023-07-31T05:39:14;22.80;35.70
16744;DHT22;71724;-33.900;151.182;2023-07-31T05:41:41;22.80;36.00
16744;DHT22;71724;-33.900;151.182;2023-07-31T05:44:09;22.80;37.00
16744;DHT22;71724;-33.900;151.182;2023-07-31T05:46:36;22.80;35.80
16744;DHT22;71724;-33.900;151.182;2023-07-31T05:49:03;22.80;36.30
16744;DHT22;71724;-33.900;151.182;2023-07-31T05:51:31;22.80;36.70
16744;DHT22;71724;-33.900;151.182;2023-07-31T05:53:58;22.70;35.90
16744;DHT22;71724;-33.900;151.182;2023-07-31T05:56:26;22.70;36.00
16744;DHT22;71724;-33.900;151.182;2023-07-31T05:58:53;22.70;36.30
16744;DHT22;71724;-33.900;151.182;2023-07-31T06:01:23;22.60;36.00
16744;DHT22;71724;-33.900;151.182;2023-07-31T06:03:51;22.50;37.40
16744;DHT22;71724;-33.900;151.182;2023-07-31T06:06:18;22.50;37.20
16744;DHT22;71724;-33.900;151.182;2023-07-31T06:08:45;22.50;36.60
16744;DHT22;71724;-33.900;151.182;2023-07-31T06:11:16;22.40;37.30
16744;DHT22;71724;-33.900;151.182;2023-07-31T06:13:43;22.40;38.20
16744;DHT22;71724;-33.900;151.182;2023-07-31T06:16:11;22.30;36.30
16744;DHT22;71724;-33.900;151.182;2023-07-31T06:18:39;22.30;36.60
16744;DHT22;71724;-33.900;151.182;2023-07-31T06:21:07;22.30;36.70
16744;DHT22;71724;-33.900;151.182;2023-07-31T06:23:35;22.20;37.60
16744;DHT22;71724;-33.900;151.182;2023-07-31T06:26:02;22.20;37.40
16744;DHT22;71724;-33.900;151.182;2023-07-31T06:28:31;22.20;37.10
16744;DHT22;71724;-33.900;151.182;2023-07-31T06:30:59;22.10;37.30
16744;DHT22;71724;-33.900;151.182;2023-07-31T06:33:26;22.00;37.60
16744;DHT22;71724;-33.900;151.182;2023-07-31T06:35:54;21.90;37.90
16744;DHT22;71724;-33.900;151.182;2023-07-31T06:38:27;21.90;38.60
16744;DHT22;71724;-33.900;151.182;2023-07-31T06:40:54;21.80;39.90
16744;DHT22;71724;-33.900;151.182;2023-07-31T06:43:22;21.70;39.60
16744;DHT22;71724;-33.900;151.182;2023-07-31T06:45:49;21.70;39.60
16744;DHT22;71724;-33.900;151.182;2023-07-31T06:48:18;21.60;39.80
16744;DHT22;71724;-33.900;151.182;2023-07-31T06:50:45;21.50;39.70
16744;DHT22;71724;-33.900;151.182;2023-07-31T06:53:13;21.40;40.00
16744;DHT22;71724;-33.900;151.182;2023-07-31T06:55:40;21.30;40.70
16744;DHT22;71724;-33.900;151.182;2023-07-31T06:58:07;21.30;41.00
16744;DHT22;71724;-33.900;151.182;2023-07-31T07:00:35;21.20;41.30
16744;DHT22;71724;-33.900;151.182;2023-07-31T07:03:02;21.10;41.60
16744;DHT22;71724;-33.900;151.182;2023-07-31T07:05:30;21.00;41.90
16744;DHT22;71724;-33.900;151.182;2023-07-31T07:07:57;20.90;42.00
16744;DHT22;71724;-33.900;151.182;2023-07-31T07:10:24;20.80;42.20
16744;DHT22;71724;-33.900;151.182;2023-07-31T07:12:52;20.80;42.50
16744;DHT22;71724;-33.900;151.182;2023-07-31T07:15:20;20.70;42.90
16744;DHT22;71724;-33.900;151.182;2023-07-31T07:17:47;20.60;43.20
16744;DHT22;71724;-33.900;151.182;2023-07-31T07:20:14;20.50;43.40
16744;DHT22;71724;-33.900;151.182;2023-07-31T07:22:42;20.40;43.50
16744;DHT22;71724;-33.900;151.182;2023-07-31T07:25:12;20.30;43.90
16744;DHT22;71724;-33.900;151.182;2023-07-31T07:27:40;20.20;44.90
16744;DHT22;71724;-33.900;151.182;2023-07-31T07:30:07;20.20;45.50
16744;DHT22;71724;-33.900;151.182;2023-07-31T07:32:35;20.10;45.20
16744;DHT22;71724;-33.900;151.182;2023-07-31T07:35:02;20.00;44.90
16744;DHT22;71724;-33.900;151.182;2023-07-31T07:37:30;19.90;45.00
16744;DHT22;71724;-33.900;151.182;2023-07-31T07:40:02;19.90;45.30
16744;DHT22;71724;-33.900;151.182;2023-07-31T07:42:29;19.80;45.60
16744;DHT22;71724;-33.900;151.182;2023-07-31T07:44:57;19.70;45.90
16744;DHT22;71724;-33.900;151.182;2023-07-31T07:47:24;19.60;46.20
16744;DHT22;71724;-33.900;151.182;2023-07-31T07:49:52;19.50;46.30
16744;DHT22;71724;-33.900;151.182;2023-07-31T07:52:19;19.40;46.50
16744;DHT22;71724;-33.900;151.182;2023-07-31T07:54:46;19.30;46.70
16744;DHT22;71724;-33.900;151.182;2023-07-31T07:57:14;19.30;46.80
16744;DHT22;71724;-33.900;151.182;2023-07-31T07:59:41;19.20;47.10
16744;DHT22;71724;-33.900;151.182;2023-07-31T08:02:09;19.20;47.30
16744;DHT22;71724;-33.900;151.182;2023-07-31T08:04:36;19.10;47.20
16744;DHT22;71724;-33.900;151.182;2023-07-31T08:07:04;19.00;47.40
16744;DHT22;71724;-33.900;151.182;2023-07-31T08:09:31;19.00;47.80
16744;DHT22;71724;-33.900;151.182;2023-07-31T08:11:58;18.90;47.90
16744;DHT22;71724;-33.900;151.182;2023-07-31T08:14:29;18.90;47.90
16744;DHT22;71724;-33.900;151.182;2023-07-31T08:16:57;18.80;48.10
16744;DHT22;71724;-33.900;151.182;2023-07-31T08:19:24;18.70;48.40
16744;DHT22;71724;-33.900;151.182;2023-07-31T08:21:58;18.70;48.60
16744;DHT22;71724;-33.900;151.182;2023-07-31T08:24:27;18.70;48.70
16744;DHT22;71724;-33.900;151.182;2023-07-31T08:26:54;18.70;48.80
16744;DHT22;71724;-33.900;151.182;2023-07-31T08:29:22;18.60;49.30
16744;DHT22;71724;-33.900;151.182;2023-07-31T08:31:50;18.50;49.50
16744;DHT22;71724;-33.900;151.182;2023-07-31T08:34:17;18.50;49.90
16744;DHT22;71724;-33.900;151.182;2023-07-31T08:36:46;18.50;50.80
16744;DHT22;71724;-33.900;151.182;2023-07-31T08:39:14;18.50;50.20
16744;DHT22;71724;-33.900;151.182;2023-07-31T08:41:41;18.50;51.20
16744;DHT22;71724;-33.900;151.182;2023-07-31T08:44:10;18.50;52.80
16744;DHT22;71724;-33.900;151.182;2023-07-31T08:46:39;18.50;53.10
16744;DHT22;71724;-33.900;151.182;2023-07-31T08:49:07;18.40;51.30
16744;DHT22;71724;-33.900;151.182;2023-07-31T08:51:36;18.30;51.30
16744;DHT22;71724;-33.900;151.182;2023-07-31T08:54:04;18.30;51.80
16744;DHT22;71724;-33.900;151.182;2023-07-31T08:56:32;18.30;51.60
16744;DHT22;71724;-33.900;151.182;2023-07-31T08:59:04;18.30;52.00
16744;DHT22;71724;-33.900;151.182;2023-07-31T09:01:35;18.20;51.60
16744;DHT22;71724;-33.900;151.182;2023-07-31T09:04:05;18.10;51.30
16744;DHT22;71724;-33.900;151.182;2023-07-31T09:06:32;18.10;52.90
16744;DHT22;71724;-33.900;151.182;2023-07-31T09:09:01;18.10;53.00
16744;DHT22;71724;-33.900;151.182;2023-07-31T09:11:28;18.00;52.30
16744;DHT22;71724;-33.900;151.182;2023-07-31T09:13:57;18.00;52.60
16744;DHT22;71724;-33.900;151.182;2023-07-31T09:16:31;17.90;52.60
16744;DHT22;71724;-33.900;151.182;2023-07-31T09:19:00;17.90;53.10
16744;DHT22;71724;-33.900;151.182;2023-07-31T09:21:31;17.80;52.70
16744;DHT22;71724;-33.900;151.182;2023-07-31T09:23:59;17.80;52.40
16744;DHT22;71724;-33.900;151.182;2023-07-31T09:26:36;17.70;53.90
16744;DHT22;71724;-33.900;151.182;2023-07-31T09:29:07;17.70;53.30
16744;DHT22;71724;-33.900;151.182;2023-07-31T09:31:46;17.60;54.60
16744;DHT22;71724;-33.900;151.182;2023-07-31T09:34:14;17.50;55.10
16744;DHT22;71724;-33.900;151.182;2023-07-31T09:36:49;17.50;55.20
16744;DHT22;71724;-33.900;151.182;2023-07-31T09:39:17;17.50;56.00
16744;DHT22;71724;-33.900;151.182;2023-07-31T09:41:53;17.50;55.80
16744;DHT22;71724;-33.900;151.182;2023-07-31T09:44:21;17.40;55.20
16744;DHT22;71724;-33.900;151.182;2023-07-31T09:46:49;17.40;55.50
16744;DHT22;71724;-33.900;151.182;2023-07-31T09:49:17;17.30;55.00
16744;DHT22;71724;-33.900;151.182;2023-07-31T09:51:44;17.20;54.80
16744;DHT22;71724;-33.900;151.182;2023-07-31T09:54:16;17.20;55.40
16744;DHT22;71724;-33.900;151.182;2023-07-31T09:56:48;17.20;55.40
16744;DHT22;71724;-33.900;151.182;2023-07-31T09:59:20;17.10;54.80
16744;DHT22;71724;-33.900;151.182;2023-07-31T10:01:48;17.00;55.70
16744;DHT22;71724;-33.900;151.182;2023-07-31T10:04:18;17.00;55.70
16744;DHT22;71724;-33.900;151.182;2023-07-31T10:06:54;17.00;56.50
16744;DHT22;71724;-33.900;151.182;2023-07-31T10:09:22;17.00;55.60
16744;DHT22;71724;-33.900;151.182;2023-07-31T10:12:06;16.80;55.40
16744;DHT22;71724;-33.900;151.182;2023-07-31T10:14:40;16.90;58.00
16744;DHT22;71724;-33.900;151.182;2023-07-31T10:17:08;16.90;57.60
16744;DHT22;71724;-33.900;151.182;2023-07-31T10:19:36;16.90;57.70
16744;DHT22;71724;-33.900;151.182;2023-07-31T10:22:05;16.80;56.60
16744;DHT22;71724;-33.900;151.182;2023-07-31T10:24:33;16.80;56.50
16744;DHT22;71724;-33.900;151.182;2023-07-31T10:27:02;16.70;58.20
16744;DHT22;71724;-33.900;151.182;2023-07-31T10:29:30;16.70;58.10
16744;DHT22;71724;-33.900;151.182;2023-07-31T10:31:59;16.80;59.60
16744;DHT22;71724;-33.900;151.182;2023-07-31T10:34:27;16.70;58.10
16744;DHT22;71724;-33.900;151.182;2023-07-31T10:37:26;16.70;58.70
16744;DHT22;71724;-33.900;151.182;2023-07-31T10:40:23;16.70;58.30
16744;DHT22;71724;-33.900;151.182;2023-07-31T10:42:52;16.70;58.80
16744;DHT22;71724;-33.900;151.182;2023-07-31T10:45:33;16.60;58.40
16744;DHT22;71724;-33.900;151.182;2023-07-31T10:48:06;16.60;58.80
16744;DHT22;71724;-33.900;151.182;2023-07-31T10:50:55;16.50;58.70
16744;DHT22;71724;-33.900;151.182;2023-07-31T10:53:24;16.50;59.90
16744;DHT22;71724;-33.900;151.182;2023-07-31T10:55:52;16.50;59.00
16744;DHT22;71724;-33.900;151.182;2023-07-31T10:58:20;16.50;59.60
16744;DHT22;71724;-33.900;151.182;2023-07-31T11:00:48;16.50;58.70
16744;DHT22;71724;-33.900;151.182;2023-07-31T11:03:17;16.50;58.70
16744;DHT22;71724;-33.900;151.182;2023-07-31T11:06:02;16.50;58.60
16744;DHT22;71724;-33.900;151.182;2023-07-31T11:13:33;16.50;57.30
16744;DHT22;71724;-33.900;151.182;2023-07-31T11:16:01;16.50;56.20
16744;DHT22;71724;-33.900;151.182;2023-07-31T11:18:28;16.50;56.40
16744;DHT22;71724;-33.900;151.182;2023-07-31T11:20:56;16.50;56.70
16744;DHT22;71724;-33.900;151.182;2023-07-31T11:23:24;16.50;57.10
16744;DHT22;71724;-33.900;151.182;2023-07-31T11:25:52;16.50;56.70
16744;DHT22;71724;-33.900;151.182;2023-07-31T11:28:20;16.50;54.20
16744;DHT22;71724;-33.900;151.182;2023-07-31T11:30:47;16.60;56.10
16744;DHT22;71724;-33.900;151.182;2023-07-31T11:33:15;16.70;55.60
16744;DHT22;71724;-33.900;151.182;2023-07-31T11:38:34;16.70;57.50
16744;DHT22;71724;-33.900;151.182;2023-07-31T11:41:04;16.70;56.60
16744;DHT22;71724;-33.900;151.182;2023-07-31T11:43:32;16.70;55.70
16744;DHT22;71724;-33.900;151.182;2023-07-31T11:46:02;16.70;53.80
16744;DHT22;71724;-33.900;151.182;2023-07-31T11:48:36;16.70;53.90
16744;DHT22;71724;-33.900;151.182;2023-07-31T11:51:08;16.70;54.40
16744;DHT22;71724;-33.900;151.182;2023-07-31T11:53:47;16.60;55.40
16744;DHT22;71724;-33.900;151.182;2023-07-31T11:56:18;16.70;55.40
16744;DHT22;71724;-33.900;151.182;2023-07-31T11:58:53;16.60;56.40
16744;DHT22;71724;-33.900;151.182;2023-07-31T12:01:22;16.60;56.00
16744;DHT22;71724;-33.900;151.182;2023-07-31T12:03:50;16.60;54.80
16744;DHT22;71724;-33.900;151.182;2023-07-31T12:06:17;16.60;54.70
16744;DHT22;71724;-33.900;151.182;2023-07-31T12:08:47;16.60;54.30
16744;DHT22;71724;-33.900;151.182;2023-07-31T12:11:15;16.50;55.30
16744;DHT22;71724;-33.900;151.182;2023-07-31T12:13:44;16.60;54.40
16744;DHT22;71724;-33.900;151.182;2023-07-31T12:16:11;16.50;55.40
16744;DHT22;71724;-33.900;151.182;2023-07-31T12:18:39;16.50;54.30
16744;DHT22;71724;-33.900;151.182;2023-07-31T12:21:08;16.60;55.20
16744;DHT22;71724;-33.900;151.182;2023-07-31T12:23:38;16.60;55.00
16744;DHT22;71724;-33.900;151.182;2023-07-31T12:26:12;16.60;54.70
16744;DHT22;71724;-33.900;151.182;2023-07-31T12:28:49;16.40;55.50
16744;DHT22;71724;-33.900;151.182;2023-07-31T12:31:18;16.30;55.30
16744;DHT22;71724;-33.900;151.182;2023-07-31T12:33:47;16.20;55.50
16744;DHT22;71724;-33.900;151.182;2023-07-31T12:36:24;16.20;57.10
16744;DHT22;71724;-33.900;151.182;2023-07-31T12:38:51;16.10;56.00
16744;DHT22;71724;-33.900;151.182;2023-07-31T12:41:20;16.00;56.60
16744;DHT22;71724;-33.900;151.182;2023-07-31T12:43:47;15.80;55.60
16744;DHT22;71724;-33.900;151.182;2023-07-31T12:46:15;15.80;56.90
16744;DHT22;71724;-33.900;151.182;2023-07-31T12:48:43;15.70;58.50
16744;DHT22;71724;-33.900;151.182;2023-07-31T12:51:11;15.70;57.50
16744;DHT22;71724;-33.900;151.182;2023-07-31T12:53:38;15.60;57.50
16744;DHT22;71724;-33.900;151.182;2023-07-31T12:56:06;15.70;59.60
16744;DHT22;71724;-33.900;151.182;2023-07-31T12:58:34;15.70;58.30
16744;DHT22;71724;-33.900;151.182;2023-07-31T13:01:01;15.70;58.90
16744;DHT22;71724;-33.900;151.182;2023-07-31T13:03:28;15.70;58.90
16744;DHT22;71724;-33.900;151.182;2023-07-31T13:05:56;15.70;59.40
16744;DHT22;71724;-33.900;151.182;2023-07-31T13:08:23;15.80;59.40
16744;DHT22;71724;-33.900;151.182;2023-07-31T13:10:51;15.90;60.10
16744;DHT22;71724;-33.900;151.182;2023-07-31T13:13:18;15.90;59.00
16744;DHT22;71724;-33.900;151.182;2023-07-31T13:15:48;15.90;58.60
16744;DHT22;71724;-33.900;151.182;2023-07-31T13:18:16;15.90;57.50
16744;DHT22;71724;-33.900;151.182;2023-07-31T13:20:43;15.80;58.40
16744;DHT22;71724;-33.900;151.182;2023-07-31T13:23:10;15.80;59.10
16744;DHT22;71724;-33.900;151.182;2023-07-31T13:25:38;15.90;59.90
16744;DHT22;71724;-33.900;151.182;2023-07-31T13:28:05;15.90;59.50
16744;DHT22;71724;-33.900;151.182;2023-07-31T13:30:33;15.90;59.50
16744;DHT22;71724;-33.900;151.182;2023-07-31T13:33:00;15.90;59.20
16744;DHT22;71724;-33.900;151.182;2023-07-31T13:35:28;15.90;58.20
16744;DHT22;71724;-33.900;151.182;2023-07-31T13:37:58;15.80;57.60
16744;DHT22;71724;-33.900;151.182;2023-07-31T13:40:25;15.70;57.70
16744;DHT22;71724;-33.900;151.182;2023-07-31T13:42:53;15.70;59.10
16744;DHT22;71724;-33.900;151.182;2023-07-31T13:45:21;15.80;58.70
16744;DHT22;71724;-33.900;151.182;2023-07-31T13:47:50;15.80;60.40
16744;DHT22;71724;-33.900;151.182;2023-07-31T13:50:18;15.90;60.10
16744;DHT22;71724;-33.900;151.182;2023-07-31T13:52:47;15.80;59.00
16744;DHT22;71724;-33.900;151.182;2023-07-31T13:55:15;15.80;59.30
16744;DHT22;71724;-33.900;151.182;2023-07-31T13:57:42;15.80;59.00
16744;DHT22;71724;-33.900;151.182;2023-07-31T14:00:10;15.70;59.90
16744;DHT22;71724;-33.900;151.182;2023-07-31T14:02:37;15.80;60.90
16744;DHT22;71724;-33.900;151.182;2023-07-31T14:05:05;15.70;58.80
16744;DHT22;71724;-33.900;151.182;2023-07-31T14:07:34;15.70;58.40
16744;DHT22;71724;-33.900;151.182;2023-07-31T14:10:02;15.60;58.40
16744;DHT22;71724;-33.900;151.182;2023-07-31T14:12:30;15.50;59.30
16744;DHT22;71724;-33.900;151.182;2023-07-31T14:14:57;15.40;58.20
16744;DHT22;71724;-33.900;151.182;2023-07-31T14:17:25;15.40;58.00
16744;DHT22;71724;-33.900;151.182;2023-07-31T14:19:52;15.40;59.30
16744;DHT22;71724;-33.900;151.182;2023-07-31T14:22:32;15.30;59.50
16744;DHT22;71724;-33.900;151.182;2023-07-31T14:25:01;15.30;57.90
16744;DHT22;71724;-33.900;151.182;2023-07-31T14:27:30;15.20;57.50
16744;DHT22;71724;-33.900;151.182;2023-07-31T14:29:57;15.20;57.60
16744;DHT22;71724;-33.900;151.182;2023-07-31T14:32:25;15.10;60.60
16744;DHT22;71724;-33.900;151.182;2023-07-31T14:34:52;15.20;59.70
16744;DHT22;71724;-33.900;151.182;2023-07-31T14:37:21;15.20;59.90
16744;DHT22;71724;-33.900;151.182;2023-07-31T14:39:48;15.20;60.50
16744;DHT22;71724;-33.900;151.182;2023-07-31T14:42:17;15.20;60.40
16744;DHT22;71724;-33.900;151.182;2023-07-31T14:44:45;15.10;59.50
16744;DHT22;71724;-33.900;151.182;2023-07-31T14:47:13;15.00;59.00
16744;DHT22;71724;-33.900;151.182;2023-07-31T14:49:41;15.10;61.30
16744;DHT22;71724;-33.900;151.182;2023-07-31T14:52:08;15.10;59.90
16744;DHT22;71724;-33.900;151.182;2023-07-31T14:54:35;15.00;58.70
16744;DHT22;71724;-33.900;151.182;2023-07-31T14:57:03;15.00;60.90
16744;DHT22;71724;-33.900;151.182;2023-07-31T14:59:30;15.00;61.70
16744;DHT22;71724;-33.900;151.182;2023-07-31T15:01:58;15.10;60.80
16744;DHT22;71724;-33.900;151.182;2023-07-31T15:04:25;15.00;59.70
16744;DHT22;71724;-33.900;151.182;2023-07-31T15:06:53;14.90;58.90
16744;DHT22;71724;-33.900;151.182;2023-07-31T15:09:20;14.90;60.20
16744;DHT22;71724;-33.900;151.182;2023-07-31T15:11:48;14.90;60.30
16744;DHT22;71724;-33.900;151.182;2023-07-31T15:14:15;14.80;59.70
16744;DHT22;71724;-33.900;151.182;2023-07-31T15:16:43;14.80;60.60
16744;DHT22;71724;-33.900;151.182;2023-07-31T15:19:10;14.90;62.20